createdAt,value
2018-12-29T00:00:31.732Z,9.1
2018-12-29T00:05:37.286Z,11.7
2018-12-29T00:10:42.490Z,10.7
2018-12-29T00:15:48.526Z,9.3
2018-12-29T00:20:53.406Z,8.2
2018-12-29T00:25:59.301Z,15.7
2018-12-29T00:31:05.100Z,9.4
2018-12-29T00:36:13.974Z,13.8
2018-12-29T00:41:19.083Z,9.4
2018-12-29T00:46:24.860Z,8.8
2018-12-29T00:51:30.573Z,8.4
2018-12-29T00:56:35.989Z,9.6
2018-12-29T01:01:41.517Z,8.8
2018-12-29T01:06:47.251Z,9.1
2018-12-29T01:11:52.822Z,7.8
2018-12-29T01:16:58.830Z,9.1
2018-12-29T01:22:04.427Z,9.9
2018-12-29T01:27:09.512Z,7.7
2018-12-29T01:32:15.042Z,6.9
2018-12-29T01:37:21.419Z,7.2
2018-12-29T01:42:27.341Z,9.9
2018-12-29T01:47:32.620Z,7.3
2018-12-29T01:52:38.287Z,7
2018-12-29T01:57:43.785Z,8.6
2018-12-29T02:02:48.704Z,7.5
2018-12-29T02:07:53.029Z,7.7
2018-12-29T02:12:58.885Z,6.1
2018-12-29T02:18:05.178Z,7
2018-12-29T02:23:10.724Z,7.6
2018-12-29T02:28:16.393Z,6.6
2018-12-29T02:33:21.538Z,6.2
2018-12-29T02:38:26.767Z,6.1
2018-12-29T02:43:32.487Z,6.6
2018-12-29T02:48:38.598Z,6.3
2018-12-29T02:53:44.380Z,5.8
2018-12-29T02:58:50.047Z,5.8
2018-12-29T03:03:54.140Z,5.3
2018-12-29T03:08:59.789Z,6.5
2018-12-29T03:14:05.386Z,6.7
2018-12-29T03:19:10.634Z,7.2
2018-12-29T03:24:16.331Z,5.5
2018-12-29T03:29:22.453Z,7
2018-12-29T03:34:28.307Z,5.4
2018-12-29T03:39:33.940Z,5.7
2018-12-29T03:44:38.239Z,5.4
2018-12-29T03:49:44.700Z,5.8
2018-12-29T03:54:50.737Z,7.9
2018-12-29T03:59:57.012Z,6.9
2018-12-29T04:05:02.063Z,6.5
2018-12-29T04:10:07.720Z,6
2018-12-29T04:15:13.309Z,5.1
2018-12-29T04:20:18.445Z,5.4
2018-12-29T04:25:28.044Z,7.3
2018-12-29T04:30:33.892Z,5.5
2018-12-29T04:35:38.909Z,5.6
2018-12-29T04:40:44.531Z,5.3
2018-12-29T04:45:49.676Z,6.8
2018-12-29T04:50:55.071Z,6.6
2018-12-29T04:56:00.838Z,6.5
2018-12-29T05:01:06.841Z,5
2018-12-29T05:06:11.796Z,5.5
2018-12-29T05:11:17.633Z,6.5
2018-12-29T05:16:26.799Z,5.2
2018-12-29T05:21:34.620Z,5.5
2018-12-29T05:26:40.304Z,6.4
2018-12-29T05:31:46.038Z,5.9
2018-12-29T05:36:52.083Z,4.6
2018-12-29T05:41:56.313Z,5.2
2018-12-29T05:47:02.190Z,4.6
2018-12-29T05:52:08.217Z,4.2
2018-12-29T05:57:13.404Z,3.7
2018-12-29T06:02:19.514Z,4.2
2018-12-29T06:07:24.504Z,3.1
2018-12-29T06:12:30.652Z,3.9
2018-12-29T06:17:36.648Z,3.1
2018-12-29T06:22:41.794Z,3.3
2018-12-29T06:27:46.807Z,4.5
2018-12-29T06:32:51.996Z,4.3
2018-12-29T06:37:56.972Z,4
2018-12-29T06:43:02.317Z,3.9
2018-12-29T06:48:08.185Z,5.4
2018-12-29T06:53:13.600Z,12.3
2018-12-29T06:58:18.637Z,14.7
2018-12-29T07:03:24.898Z,12.3
2018-12-29T07:08:29.826Z,9.2
2018-12-29T07:13:35.824Z,8.5
2018-12-29T07:18:41.197Z,12.7
2018-12-29T07:23:47.356Z,7.5
2018-12-29T07:28:53.279Z,9.9
2018-12-29T07:33:59.392Z,6.5
2018-12-29T07:39:05.343Z,7.9
2018-12-29T07:44:11.368Z,9.1
2018-12-29T07:49:17.553Z,11.6
2018-12-29T07:54:23.323Z,8.6
2018-12-29T07:59:29.504Z,8.4
2018-12-29T08:04:34.948Z,8
2018-12-29T08:09:40.619Z,14.8
2018-12-29T08:14:46.942Z,16.8
2018-12-29T08:19:52.488Z,15.3
2018-12-29T08:24:57.719Z,14
2018-12-29T08:30:03.124Z,12.9
2018-12-29T08:35:09.395Z,11.8
2018-12-29T08:40:14.820Z,10.8
2018-12-29T08:45:20.701Z,10.5
2018-12-29T08:50:26.822Z,10
2018-12-29T08:55:32.612Z,13.1
2018-12-29T09:00:37.673Z,10.3
2018-12-29T09:05:42.996Z,11.7
2018-12-29T09:10:48.409Z,11.3
2018-12-29T09:15:53.512Z,9
2018-12-29T09:20:59.373Z,12.1
2018-12-29T09:26:04.956Z,12.2
2018-12-29T09:31:10.712Z,9.9
2018-12-29T09:36:16.089Z,10
2018-12-29T09:41:22.077Z,10
2018-12-29T09:46:27.819Z,8.5
2018-12-29T09:51:32.288Z,9.4
2018-12-29T09:56:38.140Z,8.7
2018-12-29T10:01:43.703Z,8.2
2018-12-29T10:06:49.483Z,8.1
2018-12-29T10:11:55.094Z,15.2
2018-12-29T10:17:00.387Z,8.4
2018-12-29T10:22:05.331Z,8.2
2018-12-29T10:27:12.252Z,7.9
2018-12-29T10:32:17.808Z,8.7
2018-12-29T10:37:22.928Z,10.2
2018-12-29T10:42:28.698Z,14
2018-12-29T10:47:34.589Z,10.5
2018-12-29T10:52:40.480Z,9.9
2018-12-29T10:57:46.080Z,9.7
2018-12-29T11:02:50.945Z,15.4
2018-12-29T11:07:55.955Z,16.9
2018-12-29T11:13:01.196Z,12.7
2018-12-29T11:18:07.230Z,13.6
2018-12-29T11:23:12.243Z,11.4
2018-12-29T11:28:19.532Z,12.7
2018-12-29T11:33:25.124Z,13.9
2018-12-29T11:38:33.157Z,8.5
2018-12-29T11:43:38.129Z,12.6
2018-12-29T11:48:44.808Z,12
2018-12-29T11:53:50.453Z,7.7
2018-12-29T11:58:55.671Z,10
2018-12-29T12:04:01.974Z,8.6
2018-12-29T12:09:07.816Z,14.6
2018-12-29T12:14:12.862Z,11.5
2018-12-29T12:19:18.380Z,10.8
2018-12-29T12:24:22.021Z,9.4
2018-12-29T12:29:27.628Z,9.1
2018-12-29T12:34:33.357Z,8.4
2018-12-29T12:39:38.850Z,8.1
2018-12-29T12:44:44.480Z,14.3
2018-12-29T12:49:52.154Z,8.4
2018-12-29T12:54:57.735Z,8.5
2018-12-29T13:00:03.612Z,15
2018-12-29T13:05:10.588Z,10.6
2018-12-29T13:10:16.985Z,9.4
2018-12-29T13:15:22.881Z,8.4
2018-12-29T13:20:28.595Z,8
2018-12-29T13:25:33.849Z,8.6
2018-12-29T13:30:39.145Z,6.4
2018-12-29T13:35:44.891Z,6.4
2018-12-29T13:40:50.561Z,7.2
2018-12-29T13:45:55.668Z,6
2018-12-29T13:51:01.565Z,7.3
2018-12-29T13:56:07.438Z,9.2
2018-12-29T14:01:12.751Z,13.5
2018-12-29T14:06:17.804Z,8.1
2018-12-29T14:11:25.373Z,9.3
2018-12-29T14:16:30.444Z,8.9
2018-12-29T14:21:35.844Z,8.4
2018-12-29T14:26:41.556Z,7.7
2018-12-29T14:31:46.728Z,9.4
2018-12-29T14:36:52.542Z,10.7
2018-12-29T14:41:58.448Z,9.5
2018-12-29T14:47:03.535Z,12.4
2018-12-29T15:29:03.885Z,12.5
2018-12-29T15:33:59.438Z,12
2018-12-29T15:39:06.048Z,13.2
2018-12-29T15:44:11.929Z,14.7
2018-12-29T15:46:30.650Z,18.3
2018-12-29T15:51:35.642Z,21.8
2018-12-29T15:56:41.312Z,26.7
2018-12-29T16:01:47.084Z,22.2
2018-12-29T16:06:53.190Z,23.9
2018-12-29T16:11:59.657Z,30.5
2018-12-29T16:17:05.948Z,23.2
2018-12-29T16:22:11.695Z,22.9
2018-12-29T16:27:17.601Z,27
2018-12-29T16:32:22.742Z,23.2
2018-12-29T16:37:28.765Z,24.7
2018-12-29T16:42:34.736Z,24.7
2018-12-29T16:47:40.047Z,19.4
2018-12-29T16:52:45.787Z,21.1
2018-12-29T16:57:54.626Z,21.1
2018-12-29T17:03:02.075Z,23.7
2018-12-29T17:08:06.031Z,18.7
2018-12-29T17:13:09.883Z,23.6
2018-12-29T17:18:16.776Z,24.1
2018-12-29T17:23:21.930Z,21.6
2018-12-29T17:28:27.497Z,16.9
2018-12-29T17:33:34.509Z,16
2018-12-29T17:38:42.786Z,17.7
2018-12-29T17:43:48.465Z,18.4
2018-12-29T17:48:54.505Z,24
2018-12-29T17:54:00.129Z,18.8
2018-12-29T17:59:07.625Z,18.1
2018-12-29T18:04:13.116Z,17.6
2018-12-29T18:09:18.951Z,19.7
2018-12-29T18:14:24.545Z,25.8
2018-12-29T18:19:30.585Z,27.2
2018-12-29T18:24:37.336Z,26.7
2018-12-29T18:29:43.019Z,27.5
2018-12-29T18:34:48.823Z,20.3
2018-12-29T18:39:50.063Z,17.4
2018-12-29T18:44:55.188Z,30.2
2018-12-29T18:49:59.300Z,17.7
2018-12-29T18:55:05.292Z,31.1
2018-12-29T19:00:11.362Z,14.5
2018-12-29T19:05:16.784Z,13.4
2018-12-29T19:10:22.660Z,13.9
2018-12-29T19:15:28.525Z,17
2018-12-29T19:20:35.252Z,16.1
2018-12-29T19:25:37.661Z,12.8
2018-12-29T19:30:44.076Z,9.9
2018-12-29T19:35:51.116Z,12.7
2018-12-29T19:40:57.903Z,10.5
2018-12-29T19:46:05.518Z,12.2
2018-12-29T19:51:11.505Z,12.9
2018-12-29T19:56:18.708Z,11.6
2018-12-29T20:01:23.818Z,12.9
2018-12-29T20:06:30.811Z,12.2
2018-12-29T20:11:36.764Z,14.1
2018-12-29T20:16:41.743Z,23.3
2018-12-29T20:21:47.778Z,25
2018-12-29T20:26:53.571Z,19.9
2018-12-29T20:31:59.521Z,16.6
2018-12-29T20:37:06.373Z,20.8
2018-12-29T20:42:11.932Z,23.3
2018-12-29T20:47:18.765Z,13
2018-12-29T20:52:24.461Z,14.2
2018-12-29T20:57:31.444Z,11.2
2018-12-29T21:02:37.221Z,11.7
2018-12-29T21:07:42.955Z,10.5
2018-12-29T21:12:48.200Z,9.5
2018-12-29T21:17:54.307Z,10.6
2018-12-29T21:22:58.744Z,9.1
2018-12-29T21:28:04.248Z,8.3
2018-12-29T21:33:11.629Z,15.7
2018-12-29T21:38:17.758Z,8.6
2018-12-29T21:43:23.004Z,14
2018-12-29T21:48:28.782Z,13.6
2018-12-29T21:53:36.011Z,12.1
2018-12-29T21:58:41.640Z,14.2
2018-12-29T22:03:51.532Z,12.9
2018-12-29T22:08:56.956Z,15.5
2018-12-29T22:14:02.302Z,13.1
2018-12-29T22:19:07.587Z,10.5
2018-12-29T22:24:13.442Z,11.5
2018-12-29T22:29:21.640Z,10.7
2018-12-29T22:34:27.547Z,12.3
2018-12-29T22:39:32.897Z,13.5
2018-12-29T22:44:38.649Z,11.8
2018-12-29T22:49:43.722Z,15.2
2018-12-29T22:54:49.697Z,14.8
2018-12-29T22:59:55.817Z,15
2018-12-29T23:05:01.968Z,15.8
2018-12-29T23:10:07.347Z,14.1
2018-12-29T23:15:12.767Z,17.6
2018-12-29T23:20:18.112Z,15.8
2018-12-29T23:25:24.160Z,15.1
2018-12-29T23:30:29.808Z,12.6
2018-12-29T23:35:35.663Z,16.1
2018-12-29T23:40:42.907Z,12.5
2018-12-29T23:45:49.084Z,12.6
2018-12-29T23:50:58.307Z,13.2
2018-12-29T23:56:00.989Z,11.7
